Time;durP1;ratioP1;P1;durP2;ratioP2;P2;SDS_P1;SDS_P2;PMS_P1;PMS_P2;Temp;Humidity;BMP_temperature;BMP_pressure;BME280_temperature;BME280_humidity;BME280_pressure;Samples;Min_cycle;Max_cycle;Signal;HPM_P1;HPM_P2
2021/06/07 00:01:20;;;;;;;7.65;5.50;;;18.20;99.90;;;;;;4125379;28;20104;-83
2021/06/07 00:03:21;;;;;;;6.85;5.07;;;18.20;99.90;;;;;;4124913;28;20035;-83
2021/06/07 00:05:22;;;;;;;8.10;4.75;;;18.20;99.90;;;;;;4136656;28;20168;-83
2021/06/07 00:07:23;;;;;;;8.00;5.35;;;18.20;99.90;;;;;;4143058;28;20041;-83
2021/06/07 00:09:24;;;;;;;5.20;4.63;;;18.20;99.90;;;;;;4141548;28;20030;-83
2021/06/07 00:11:25;;;;;;;7.60;5.35;;;18.20;99.90;;;;;;4141639;28;20176;-83
2021/06/07 00:13:27;;;;;;;8.90;5.60;;;18.20;99.90;;;;;;4148155;28;20075;-83
2021/06/07 00:15:30;;;;;;;8.15;5.40;;;18.20;99.90;;;;;;4121315;28;20042;-83
2021/06/07 00:17:31;;;;;;;6.72;4.78;;;18.20;99.90;;;;;;4142168;28;20034;-83
2021/06/07 00:19:34;;;;;;;5.88;4.85;;;18.20;99.90;;;;;;4129064;28;20118;-83
2021/06/07 00:21:34;;;;;;;;;;;18.20;99.90;;;;;;4140664;28;20041;-83
2021/06/07 00:23:36;;;;;;;5.57;4.97;;;18.20;99.90;;;;;;4144079;28;19984;-83
2021/06/07 00:25:38;;;;;;;5.90;4.68;;;18.20;99.90;;;;;;4144748;28;20078;-83
2021/06/07 00:27:38;;;;;;;8.52;5.28;;;18.20;99.90;;;;;;4136704;28;20078;-83
2021/06/07 00:29:39;;;;;;;7.75;5.65;;;18.20;99.90;;;;;;4125607;28;20373;-82
2021/06/07 00:31:40;;;;;;;7.93;4.95;;;18.20;99.90;;;;;;4141036;28;20526;-82
2021/06/07 00:33:41;;;;;;;6.65;4.90;;;18.20;99.90;;;;;;4127995;28;20034;-83
2021/06/07 00:35:42;;;;;;;8.07;5.30;;;18.20;99.90;;;;;;4144046;28;20038;-82
2021/06/07 00:37:42;;;;;;;6.63;5.40;;;18.10;99.90;;;;;;4139884;28;20085;-83
2021/06/07 00:39:43;;;;;;;6.70;5.25;;;18.10;99.90;;;;;;4144397;28;20164;-83
2021/06/07 00:41:47;;;;;;;7.65;5.30;;;18.00;99.90;;;;;;4142273;28;20073;-83
2021/06/07 00:44:01;;;;;;;6.97;5.50;;;18.00;99.90;;;;;;4126571;28;20088;-83
2021/06/07 00:46:02;;;;;;;8.93;6.03;;;17.90;99.90;;;;;;4143348;28;20038;-83
2021/06/07 00:48:04;;;;;;;7.63;5.38;;;17.80;99.90;;;;;;4124406;28;20065;-83
2021/06/07 00:50:10;;;;;;;6.97;5.15;;;17.80;99.90;;;;;;4138461;28;20116;-83
2021/06/07 00:52:10;;;;;;;7.97;4.95;;;17.70;99.90;;;;;;4144433;28;20041;-83
2021/06/07 00:54:12;;;;;;;7.35;5.10;;;17.70;99.90;;;;;;4128476;28;20509;-83
2021/06/07 00:56:13;;;;;;;7.83;5.17;;;17.70;99.90;;;;;;4140036;28;20576;-83
2021/06/07 00:58:14;;;;;;;6.38;4.93;;;17.70;99.90;;;;;;4146762;28;20068;-83
2021/06/07 01:00:15;;;;;;;6.47;4.78;;;17.70;99.90;;;;;;4142640;28;20049;-83
2021/06/07 01:02:16;;;;;;;6.97;4.93;;;17.70;99.90;;;;;;4144221;28;20057;-83
2021/06/07 01:04:16;;;;;;;7.38;5.13;;;17.70;99.90;;;;;;4121770;28;20068;-83
2021/06/07 01:06:17;;;;;;;7.43;4.80;;;17.70;99.90;;;;;;4141902;28;20638;-83
2021/06/07 01:08:19;;;;;;;7.00;5.25;;;17.70;99.90;;;;;;4143770;28;20045;-83
2021/06/07 01:10:21;;;;;;;6.57;5.40;;;17.70;99.90;;;;;;4123743;28;20034;-82
2021/06/07 01:12:22;;;;;;;6.78;5.25;;;17.60;99.90;;;;;;4141626;28;20034;-82
2021/06/07 01:14:22;;;;;;;6.35;4.88;;;17.60;99.90;;;;;;4143852;28;20462;-82
2021/06/07 01:16:23;;;;;;;9.00;5.20;;;17.60;99.90;;;;;;4127491;28;20474;-82
2021/06/07 01:18:28;;;;;;;6.65;5.00;;;17.60;99.90;;;;;;4127136;28;20030;-82
2021/06/07 01:20:33;;;;;;;6.60;5.00;;;17.70;99.90;;;;;;4139618;28;20051;-83
2021/06/07 01:22:35;;;;;;;6.68;4.90;;;17.70;99.90;;;;;;4138808;28;21021;-83
2021/06/07 01:24:35;;;;;;;7.75;5.43;;;17.70;99.90;;;;;;4123069;28;20044;-83
2021/06/07 01:26:37;;;;;;;7.03;4.90;;;17.70;99.90;;;;;;4141225;28;20062;-83
2021/06/07 01:28:39;;;;;;;6.32;4.68;;;17.70;99.90;;;;;;4146002;28;20038;-83
2021/06/07 01:30:42;;;;;;;8.02;5.72;;;17.60;99.90;;;;;;4143226;28;20029;-83
2021/06/07 01:32:44;;;;;;;9.93;6.75;;;17.60;99.90;;;;;;4124450;28;20046;-83
2021/06/07 01:34:45;;;;;;;7.68;6.03;;;17.60;99.90;;;;;;4125016;28;20061;-83
2021/06/07 01:36:45;;;;;;;8.00;5.53;;;17.60;99.90;;;;;;4125493;28;20522;-82
2021/06/07 01:38:46;;;;;;;8.82;6.20;;;17.60;99.90;;;;;;4130120;28;20046;-82
2021/06/07 01:40:50;;;;;;;7.93;6.07;;;17.50;99.90;;;;;;4141665;28;20030;-82
2021/06/07 01:42:52;;;;;;;7.40;5.90;;;17.50;99.90;;;;;;4140776;28;20097;-83
2021/06/07 01:44:53;;;;;;;8.93;6.07;;;17.50;99.90;;;;;;4156866;28;20033;-83
2021/06/07 01:46:53;;;;;;;7.03;5.78;;;17.50;99.90;;;;;;4142439;28;20076;-83
2021/06/07 01:48:54;;;;;;;8.05;5.82;;;17.50;99.90;;;;;;4141756;28;20078;-83
2021/06/07 01:50:58;;;;;;;7.43;5.90;;;17.50;99.90;;;;;;4126660;28;20042;-83
2021/06/07 01:52:59;;;;;;;6.90;5.53;;;17.50;99.90;;;;;;4125603;28;20031;-83
2021/06/07 01:55:00;;;;;;;8.27;5.68;;;17.50;99.90;;;;;;4120297;28;20069;-82
2021/06/07 01:57:01;;;;;;;7.15;5.82;;;17.50;99.90;;;;;;4143739;28;20038;-83
2021/06/07 01:59:03;;;;;;;10.35;6.82;;;17.50;99.90;;;;;;4128028;28;20100;-83
2021/06/07 02:01:14;;;;;;;8.85;5.93;;;17.50;99.90;;;;;;4128197;28;20130;-83
2021/06/07 02:03:16;;;;;;;7.65;6.05;;;17.50;99.90;;;;;;4140372;28;20613;-83
2021/06/07 02:05:24;;;;;;;11.18;6.90;;;17.50;99.90;;;;;;4143835;28;20034;-83
2021/06/07 02:07:24;;;;;;;10.20;7.18;;;17.50;99.90;;;;;;4140602;28;20026;-83
2021/06/07 02:09:25;;;;;;;9.20;6.22;;;17.50;99.90;;;;;;4142313;28;20049;-83
2021/06/07 02:11:28;;;;;;;8.25;6.63;;;17.50;99.90;;;;;;4140870;28;20085;-83
2021/06/07 02:13:29;;;;;;;8.55;6.50;;;17.50;99.90;;;;;;4143554;28;20026;-83
2021/06/07 02:15:30;;;;;;;8.73;6.28;;;17.50;99.90;;;;;;4142911;28;20147;-83
2021/06/07 02:17:31;;;;;;;9.75;6.65;;;17.50;99.90;;;;;;4126273;28;20042;-82
2021/06/07 02:19:31;;;;;;;8.98;6.45;;;17.50;99.90;;;;;;4142640;28;20142;-82
2021/06/07 02:21:33;;;;;;;9.07;6.78;;;17.50;99.90;;;;;;4142120;28;20065;-82
2021/06/07 02:23:34;;;;;;;11.38;6.60;;;17.50;99.90;;;;;;4126135;28;20095;-83
2021/06/07 02:25:34;;;;;;;10.65;7.45;;;17.50;99.90;;;;;;4140344;28;20134;-83
2021/06/07 02:27:36;;;;;;;11.27;6.72;;;17.50;99.90;;;;;;4142756;28;20398;-82
2021/06/07 02:29:36;;;;;;;8.82;6.22;;;17.50;99.90;;;;;;4126562;28;20038;-82
2021/06/07 02:31:38;;;;;;;8.65;6.00;;;17.50;99.90;;;;;;4140838;28;21660;-82
2021/06/07 02:33:38;;;;;;;8.85;6.25;;;17.50;99.90;;;;;;4142057;28;20038;-82
2021/06/07 02:35:39;;;;;;;9.82;6.68;;;17.50;99.90;;;;;;4141274;28;20057;-82
2021/06/07 02:37:40;;;;;;;7.43;5.97;;;17.50;99.90;;;;;;4127401;28;20046;-83
2021/06/07 02:39:41;;;;;;;10.27;6.40;;;17.50;99.90;;;;;;4141642;28;20038;-83
2021/06/07 02:41:43;;;;;;;7.75;6.25;;;17.50;99.90;;;;;;4143497;28;20200;-83
2021/06/07 02:43:43;;;;;;;7.97;6.28;;;17.50;99.90;;;;;;4139958;28;20136;-83
2021/06/07 02:45:44;;;;;;;8.95;6.25;;;17.50;99.90;;;;;;4143089;28;20487;-83
2021/06/07 02:47:47;;;;;;;8.65;6.88;;;17.50;99.90;;;;;;4142175;28;20041;-83
2021/06/07 02:49:48;;;;;;;9.02;6.68;;;17.50;99.90;;;;;;4143994;28;20120;-83
2021/06/07 02:51:49;;;;;;;8.30;6.53;;;17.50;99.90;;;;;;4143155;28;20049;-83
2021/06/07 02:53:50;;;;;;;9.82;6.20;;;17.50;99.90;;;;;;4127212;28;20396;-83
2021/06/07 02:55:53;;;;;;;10.35;6.80;;;17.40;99.90;;;;;;4144532;28;20045;-83
2021/06/07 02:57:55;;;;;;;10.95;7.03;;;17.40;99.90;;;;;;4145189;28;20583;-83
2021/06/07 02:59:57;;;;;;;10.60;7.40;;;17.40;99.90;;;;;;4133506;28;20030;-83
2021/06/07 03:01:57;;;;;;;9.52;6.65;;;17.40;99.90;;;;;;4130110;28;20609;-83
2021/06/07 03:03:58;;;;;;;13.77;7.35;;;17.40;99.90;;;;;;4149021;28;20038;-83
2021/06/07 03:05:59;;;;;;;8.30;7.03;;;17.40;99.90;;;;;;4126708;28;20082;-83
2021/06/07 03:08:01;;;;;;;8.82;7.35;;;17.40;99.90;;;;;;4130646;28;20031;-83
2021/06/07 03:10:05;;;;;;;8.90;6.30;;;17.30;99.90;;;;;;4129784;28;20073;-83
2021/06/07 03:12:07;;;;;;;9.45;6.53;;;17.30;99.90;;;;;;4146082;28;20285;-83
2021/06/07 03:14:08;;;;;;;10.10;7.47;;;17.30;99.90;;;;;;4129200;28;20042;-83
2021/06/07 03:16:09;;;;;;;9.60;6.93;;;17.30;99.90;;;;;;4147655;28;20128;-83
2021/06/07 03:18:10;;;;;;;11.45;7.18;;;17.30;99.90;;;;;;4127697;28;20542;-83
2021/06/07 03:20:17;;;;;;;10.40;6.82;;;17.30;99.90;;;;;;4146487;28;20033;-83
2021/06/07 03:22:21;;;;;;;12.27;6.45;;;17.20;99.90;;;;;;4130368;28;20439;-83
2021/06/07 03:24:22;;;;;;;8.27;5.90;;;17.20;99.90;;;;;;4140997;28;20030;-83
2021/06/07 03:26:23;;;;;;;11.50;6.10;;;17.20;99.90;;;;;;4143299;28;20046;-83
2021/06/07 03:28:23;;;;;;;13.30;7.18;;;17.20;99.90;;;;;;4141593;28;20034;-83
2021/06/07 03:30:25;;;;;;;11.35;7.50;;;17.10;99.90;;;;;;4143709;28;20030;-83
2021/06/07 03:32:25;;;;;;;9.77;6.53;;;17.10;99.90;;;;;;4126101;28;20041;-83
2021/06/07 03:34:26;;;;;;;9.65;7.15;;;17.10;99.90;;;;;;4143761;28;20081;-83
2021/06/07 03:36:27;;;;;;;8.18;6.05;;;17.10;99.90;;;;;;4124735;28;20113;-83
2021/06/07 03:38:30;;;;;;;9.68;6.60;;;17.10;99.90;;;;;;4143313;28;20092;-82
2021/06/07 03:40:33;;;;;;;6.93;5.50;;;17.00;99.90;;;;;;4142059;28;20033;-82
2021/06/07 03:42:33;;;;;;;8.23;5.70;;;17.00;99.90;;;;;;4126939;28;20065;-82
2021/06/07 03:44:35;;;;;;;7.95;5.95;;;17.00;99.90;;;;;;4141429;28;20038;-82
2021/06/07 03:46:35;;;;;;;8.13;6.47;;;17.00;99.90;;;;;;4123934;28;20026;-83
2021/06/07 03:48:37;;;;;;;9.07;6.65;;;17.00;99.90;;;;;;4129343;28;20038;-83
2021/06/07 03:50:40;;;;;;;9.65;6.28;;;17.00;99.90;;;;;;4146639;28;20034;-83
2021/06/07 03:52:41;;;;;;;;;;;17.00;99.90;;;;;;4147861;28;20048;-83
2021/06/07 03:54:42;;;;;;;7.05;5.35;;;17.00;99.90;;;;;;4144489;28;19921;-82
2021/06/07 03:56:42;;;;;;;7.45;6.43;;;17.00;99.90;;;;;;4143945;28;20034;-83
2021/06/07 03:58:43;;;;;;;10.90;5.80;;;17.00;99.90;;;;;;4127537;28;20046;-82
2021/06/07 04:00:44;;;;;;;8.40;6.35;;;17.00;99.90;;;;;;4145344;28;20088;-82
2021/06/07 04:02:46;;;;;;;11.27;6.95;;;17.00;99.90;;;;;;4127585;28;20038;-82
2021/06/07 04:04:47;;;;;;;10.02;6.85;;;17.00;99.90;;;;;;4127989;28;20034;-82
2021/06/07 04:06:47;;;;;;;7.93;5.93;;;16.90;99.90;;;;;;4124850;28;20041;-83
2021/06/07 04:08:49;;;;;;;8.50;6.60;;;17.00;99.90;;;;;;4130200;28;20065;-83
2021/06/07 04:10:50;;;;;;;7.47;6.53;;;17.00;99.90;;;;;;4144461;28;20038;-83
2021/06/07 04:12:52;;;;;;;9.30;7.45;;;17.00;99.90;;;;;;4148899;28;20057;-83
2021/06/07 04:14:52;;;;;;;9.75;7.07;;;17.00;99.90;;;;;;4145051;28;20030;-83
2021/06/07 04:16:53;;;;;;;10.02;7.10;;;17.00;99.90;;;;;;4125876;28;20045;-82
2021/06/07 04:18:54;;;;;;;8.32;6.60;;;16.90;99.90;;;;;;4131276;28;20036;-83
2021/06/07 04:20:54;;;;;;;10.20;7.80;;;16.90;99.90;;;;;;4147709;28;20055;-83
2021/06/07 04:22:56;;;;;;;10.13;7.43;;;16.90;99.90;;;;;;4143131;28;20033;-83
2021/06/07 04:24:56;;;;;;;8.23;6.93;;;16.90;99.90;;;;;;4143517;28;20038;-82
2021/06/07 04:26:57;;;;;;;9.68;6.10;;;16.80;99.90;;;;;;4130905;28;20061;-83
2021/06/07 04:28:58;;;;;;;10.50;7.30;;;16.80;99.90;;;;;;4127468;28;20050;-83
2021/06/07 04:30:58;;;;;;;9.15;6.72;;;16.80;99.90;;;;;;4142704;28;20034;-83
2021/06/07 04:33:00;;;;;;;9.25;6.97;;;16.70;99.90;;;;;;4143514;28;20030;-84
2021/06/07 04:35:02;;;;;;;9.02;5.65;;;16.70;99.90;;;;;;4128109;28;20039;-83
2021/06/07 04:37:04;;;;;;;9.68;7.00;;;16.70;99.90;;;;;;4126444;28;20038;-83
2021/06/07 04:39:06;;;;;;;11.80;6.90;;;16.70;99.90;;;;;;4124014;28;20118;-83
2021/06/07 04:41:06;;;;;;;8.23;6.15;;;16.70;99.90;;;;;;4124109;28;20034;-83
2021/06/07 04:43:10;;;;;;;10.38;7.32;;;16.60;99.90;;;;;;4140936;28;20389;-83
2021/06/07 04:45:12;;;;;;;10.88;7.15;;;16.60;99.90;;;;;;4127296;28;20527;-83
2021/06/07 04:47:13;;;;;;;9.43;7.07;;;16.50;99.90;;;;;;4142092;28;20100;-83
2021/06/07 04:49:13;;;;;;;9.57;6.53;;;16.60;99.90;;;;;;4145104;28;20457;-83
2021/06/07 04:51:15;;;;;;;7.30;6.25;;;16.50;99.90;;;;;;4142999;28;20565;-83
2021/06/07 04:53:17;;;;;;;8.93;6.55;;;16.50;99.90;;;;;;4127859;28;20108;-83
2021/06/07 04:55:17;;;;;;;11.80;7.35;;;16.50;99.90;;;;;;4142768;28;20037;-83
2021/06/07 04:57:18;;;;;;;10.30;7.05;;;16.50;99.90;;;;;;4146599;28;20041;-83
2021/06/07 04:59:18;;;;;;;9.90;6.63;;;16.50;99.90;;;;;;4143913;28;20041;-83
2021/06/07 05:01:19;;;;;;;11.52;6.85;;;16.50;99.90;;;;;;4146768;28;20037;-83
2021/06/07 05:03:21;;;;;;;10.32;6.50;;;16.40;99.90;;;;;;4148919;28;20477;-83
2021/06/07 05:05:22;;;;;;;7.57;6.53;;;16.40;99.90;;;;;;4126643;28;20026;-83
2021/06/07 05:07:23;;;;;;;8.90;6.80;;;16.40;99.90;;;;;;4139910;28;20045;-83
2021/06/07 05:09:24;;;;;;;11.50;7.97;;;16.40;99.90;;;;;;4132381;28;20383;-82
2021/06/07 05:11:25;;;;;;;8.77;6.97;;;16.40;99.90;;;;;;4147464;28;20037;-83
2021/06/07 05:13:27;;;;;;;11.07;7.28;;;16.40;99.90;;;;;;4148502;28;21279;-80
2021/06/07 05:15:28;;;;;;;10.57;7.75;;;16.40;99.90;;;;;;4147799;28;20030;-82
2021/06/07 05:17:28;;;;;;;9.65;7.18;;;16.30;99.90;;;;;;4148032;28;20393;-81
2021/06/07 05:19:29;;;;;;;9.23;6.57;;;16.30;99.90;;;;;;4145950;28;20034;-81
2021/06/07 05:21:29;;;;;;;14.20;8.20;;;16.30;99.90;;;;;;4130130;28;20088;-81
2021/06/07 05:23:30;;;;;;;16.20;8.35;;;16.30;99.90;;;;;;4132276;28;20046;-81
2021/06/07 05:25:33;;;;;;;9.02;6.80;;;16.30;99.90;;;;;;4137951;28;20399;-80
2021/06/07 05:27:33;;;;;;;10.00;7.85;;;16.30;99.90;;;;;;4151752;28;20049;-82
2021/06/07 05:29:48;;;;;;;11.50;8.38;;;16.40;99.90;;;;;;4150101;28;20118;-80
2021/06/07 05:31:49;;;;;;;11.32;7.72;;;16.40;99.90;;;;;;4146920;28;20681;-81
2021/06/07 05:33:49;;;;;;;13.32;7.97;;;16.40;99.90;;;;;;4142708;28;20034;-80
2021/06/07 05:35:51;;;;;;;10.85;7.18;;;16.40;99.90;;;;;;4129091;28;20041;-80
2021/06/07 05:37:53;;;;;;;10.05;7.00;;;16.40;99.90;;;;;;4116915;28;20113;-80
2021/06/07 05:39:59;;;;;;;12.57;7.55;;;16.50;99.90;;;;;;4127421;28;20044;-80
2021/06/07 05:42:06;;;;;;;10.95;7.90;;;16.50;99.90;;;;;;4146226;28;20030;-81
2021/06/07 05:44:06;;;;;;;12.73;7.03;;;16.50;99.90;;;;;;4150076;28;20038;-82
2021/06/07 05:46:08;;;;;;;10.07;7.85;;;16.50;99.90;;;;;;4144407;28;20145;-83
2021/06/07 05:48:09;;;;;;;10.65;7.30;;;16.50;99.90;;;;;;4146487;28;20076;-80
2021/06/07 05:50:19;;;;;;;12.15;8.45;;;16.60;99.90;;;;;;4148235;28;20648;-81
2021/06/07 05:52:26;;;;;;;11.32;8.05;;;16.60;99.90;;;;;;4141431;28;20678;-80
2021/06/07 05:54:28;;;;;;;11.70;8.00;;;16.60;99.90;;;;;;4132632;28;20030;-81
2021/06/07 05:56:28;;;;;;;9.98;7.28;;;16.70;99.90;;;;;;4148674;28;20421;-80
2021/06/07 05:58:29;;;;;;;11.32;7.55;;;16.70;99.90;;;;;;4153539;28;20029;-80
2021/06/07 06:00:32;;;;;;;10.63;7.30;;;16.80;99.90;;;;;;4127848;28;20593;-81
2021/06/07 06:02:32;;;;;;;10.38;7.32;;;16.90;99.90;;;;;;4145671;28;20049;-81
2021/06/07 06:04:34;;;;;;;10.93;8.15;;;16.90;99.90;;;;;;4137486;28;20080;-80
2021/06/07 06:06:35;;;;;;;8.32;6.82;;;17.00;99.90;;;;;;4126119;28;20041;-80
2021/06/07 06:09:32;;;;;;;12.68;7.82;;;17.00;99.90;;;;;;4091056;28;20740;-81
2021/06/07 06:12:17;;;;;;;9.05;6.88;;;17.00;99.90;;;;;;3983167;29;20040;-80
2021/06/07 06:14:41;;;;;;;8.35;6.70;;;17.00;99.90;;;;;;4002617;28;20046;-80
2021/06/07 06:16:41;;;;;;;11.20;7.78;;;17.10;99.90;;;;;;4094499;28;20139;-80
2021/06/07 06:18:42;;;;;;;10.55;8.10;;;17.10;99.90;;;;;;4138651;28;20068;-80
2021/06/07 06:20:42;;;;;;;9.18;7.22;;;17.20;99.90;;;;;;4137495;28;20115;-80
2021/06/07 06:22:46;;;;;;;7.82;6.43;;;17.20;99.90;;;;;;4140109;28;20045;-80
2021/06/07 06:24:48;;;;;;;13.63;8.15;;;17.30;99.90;;;;;;4143198;28;20042;-80
2021/06/07 06:26:48;;;;;;;10.60;7.97;;;17.30;99.90;;;;;;4142382;28;20762;-80
2021/06/07 06:28:49;;;;;;;10.65;8.07;;;17.30;99.90;;;;;;4125012;28;20037;-80
2021/06/07 06:30:51;;;;;;;11.15;8.10;;;17.40;99.90;;;;;;4140310;28;20042;-81
2021/06/07 06:32:54;;;;;;;10.85;7.43;;;17.40;99.90;;;;;;4146714;28;20057;-80
2021/06/07 06:34:55;;;;;;;9.95;7.63;;;17.40;99.90;;;;;;4127565;28;20057;-80
2021/06/07 06:36:55;;;;;;;9.32;7.45;;;17.40;99.90;;;;;;4142273;28;20037;-80
2021/06/07 06:38:56;;;;;;;11.57;8.13;;;17.50;99.90;;;;;;4125094;28;20038;-80
2021/06/07 06:40:57;;;;;;;11.85;8.07;;;17.50;99.90;;;;;;4143219;28;20960;-80
2021/06/07 06:42:59;;;;;;;13.57;7.65;;;17.50;99.90;;;;;;4145097;28;20128;-80
2021/06/07 06:45:03;;;;;;;10.02;6.93;;;17.50;99.90;;;;;;4143359;28;20107;-80
2021/06/07 06:47:04;;;;;;;14.43;8.80;;;17.50;99.90;;;;;;4141273;28;20107;-80
2021/06/07 06:49:05;;;;;;;10.70;8.10;;;17.50;99.90;;;;;;4148104;28;20121;-80
2021/06/07 06:51:06;;;;;;;12.57;8.18;;;17.50;99.90;;;;;;4129629;28;20553;-80
2021/06/07 06:53:13;;;;;;;11.63;8.32;;;17.50;99.90;;;;;;4140883;28;20590;-80
2021/06/07 06:55:13;;;;;;;11.98;7.78;;;17.50;99.90;;;;;;4140211;28;20379;-80
2021/06/07 06:57:14;;;;;;;11.38;7.78;;;17.50;99.90;;;;;;4140273;28;20504;-80
2021/06/07 06:59:15;;;;;;;8.85;7.20;;;17.50;99.90;;;;;;4146661;28;20441;-80
2021/06/07 07:01:17;;;;;;;12.25;7.70;;;17.50;99.90;;;;;;4144340;28;20029;-80
2021/06/07 07:03:20;;;;;;;11.27;8.00;;;17.60;99.90;;;;;;4144619;28;20095;-80
2021/06/07 07:05:20;;;;;;;10.88;7.38;;;17.60;99.90;;;;;;4075736;28;20039;-81
2021/06/07 07:07:21;;;;;;;10.55;7.15;;;17.70;99.90;;;;;;4127438;28;20053;-80
2021/06/07 07:09:25;;;;;;;10.27;8.00;;;17.70;99.90;;;;;;4125282;28;20104;-80
2021/06/07 07:11:25;;;;;;;9.98;7.43;;;17.70;99.90;;;;;;4137104;28;20038;-80
2021/06/07 07:13:26;;;;;;;8.73;7.05;;;17.70;99.90;;;;;;4121300;28;20459;-81
2021/06/07 07:15:26;;;;;;;11.13;8.55;;;17.70;99.90;;;;;;4119690;28;20038;-80
2021/06/07 07:17:28;;;;;;;15.60;9.77;;;17.80;99.90;;;;;;4143445;28;20030;-80
2021/06/07 07:19:29;;;;;;;10.83;7.30;;;17.80;99.90;;;;;;4139640;28;20048;-80
2021/06/07 07:21:29;;;;;;;11.98;6.85;;;17.70;99.90;;;;;;4143615;28;20840;-80
2021/06/07 07:23:30;;;;;;;12.43;7.45;;;17.80;99.90;;;;;;4137730;28;20117;-80
2021/06/07 07:25:31;;;;;;;12.35;8.18;;;17.80;99.90;;;;;;4142658;28;20038;-80
2021/06/07 07:27:36;;;;;;;11.40;7.40;;;17.90;99.90;;;;;;4099563;28;20039;-81
2021/06/07 07:29:45;;;;;;;10.70;7.18;;;17.90;99.90;;;;;;4126745;28;20503;-81
2021/06/07 07:31:46;;;;;;;8.80;6.50;;;18.00;99.90;;;;;;4119240;28;20043;-81
2021/06/07 07:33:49;;;;;;;8.05;6.70;;;18.00;99.90;;;;;;4136518;28;20110;-80
2021/06/07 07:36:00;;;;;;;8.25;6.45;;;18.10;99.90;;;;;;4070167;28;20483;-80
2021/06/07 07:38:03;;;;;;;7.70;5.72;;;18.10;99.90;;;;;;4097051;28;20031;-81
2021/06/07 07:40:24;;;;;;;9.23;5.68;;;18.10;99.90;;;;;;4092612;28;20826;-80
2021/06/07 07:42:34;;;;;;;12.75;6.90;;;18.20;99.90;;;;;;4144495;28;20452;-80
2021/06/07 07:44:40;;;;;;;8.43;6.90;;;18.30;99.90;;;;;;4146031;28;21081;-80
2021/06/07 07:46:42;;;;;;;8.45;6.40;;;18.30;99.90;;;;;;4147216;28;20026;-80
2021/06/07 07:48:43;;;;;;;8.15;6.20;;;18.30;99.90;;;;;;4144322;28;20049;-80
2021/06/07 07:50:44;;;;;;;12.25;6.78;;;18.40;99.90;;;;;;4150317;28;20533;-80
2021/06/07 07:52:46;;;;;;;11.65;7.78;;;18.50;99.90;;;;;;4143700;28;20654;-80
2021/06/07 07:54:46;;;;;;;11.65;7.22;;;18.50;99.90;;;;;;4142988;28;20057;-80
2021/06/07 07:56:47;;;;;;;6.95;6.22;;;18.50;99.90;;;;;;4145720;28;20674;-80
2021/06/07 07:58:47;;;;;;;11.07;8.20;;;18.60;99.90;;;;;;4144244;28;20041;-80
2021/06/07 08:00:57;;;;;;;11.25;7.35;;;18.60;99.90;;;;;;4146275;28;20033;-80
2021/06/07 08:02:59;;;;;;;10.45;6.90;;;18.60;99.90;;;;;;4146905;28;20162;-80
2021/06/07 08:05:10;;;;;;;10.02;6.25;;;18.60;99.90;;;;;;4143596;28;20062;-80
2021/06/07 08:07:20;;;;;;;17.42;7.00;;;18.70;99.90;;;;;;4155122;28;20410;-80
2021/06/07 08:09:21;;;;;;;10.32;6.85;;;18.70;99.90;;;;;;4141239;28;20042;-80
2021/06/07 08:11:23;;;;;;;12.02;6.28;;;18.80;99.90;;;;;;4146014;28;87496;-80
2021/06/07 08:13:24;;;;;;;8.97;6.77;;;18.90;99.90;;;;;;4134274;28;20488;-80
2021/06/07 08:15:28;;;;;;;9.13;6.97;;;18.90;99.90;;;;;;4152125;28;20183;-80
2021/06/07 08:17:30;;;;;;;9.45;7.00;;;19.00;99.90;;;;;;4146549;28;20033;-80
2021/06/07 08:19:31;;;;;;;10.63;7.00;;;19.10;99.90;;;;;;4131699;28;20034;-80
2021/06/07 08:21:31;;;;;;;8.90;6.40;;;19.10;99.90;;;;;;4147102;28;20077;-80
2021/06/07 08:23:39;;;;;;;7.53;5.90;;;19.20;99.90;;;;;;4145442;28;20053;-80
2021/06/07 08:25:40;;;;;;;10.05;6.85;;;19.30;99.90;;;;;;4131873;28;20112;-79
2021/06/07 08:27:41;;;;;;;8.43;6.65;;;19.30;99.90;;;;;;4148201;28;20817;-80
2021/06/07 08:29:42;;;;;;;9.45;6.28;;;19.40;99.90;;;;;;4151475;28;20033;-80
2021/06/07 08:31:44;;;;;;;10.23;6.72;;;19.50;99.90;;;;;;4148940;28;20036;-80
2021/06/07 08:33:50;;;;;;;8.48;6.13;;;19.50;99.90;;;;;;4146245;28;20110;-80
2021/06/07 08:35:58;;;;;;;8.48;6.38;;;19.60;99.90;;;;;;4143120;28;20418;-80
2021/06/07 08:37:59;;;;;;;12.32;6.10;;;19.60;99.90;;;;;;4150245;28;20037;-80
2021/06/07 08:40:00;;;;;;;8.45;6.50;;;19.70;99.90;;;;;;4131806;28;20042;-80
2021/06/07 08:42:02;;;;;;;8.27;5.68;;;19.80;99.90;;;;;;4142794;28;20038;-80
2021/06/07 08:44:03;;;;;;;6.20;4.88;;;19.90;99.90;;;;;;4149637;28;20033;-79
2021/06/07 08:46:04;;;;;;;8.07;5.40;;;20.00;99.90;;;;;;4147315;28;20040;-80
2021/06/07 08:48:05;;;;;;;7.75;5.50;;;20.10;99.90;;;;;;4144877;28;20038;-80
2021/06/07 08:50:06;;;;;;;8.45;6.38;;;20.20;99.90;;;;;;4145556;28;20058;-80
2021/06/07 08:52:07;;;;;;;8.10;5.60;;;20.30;99.90;;;;;;4122882;28;20048;-80
2021/06/07 08:54:08;;;;;;;8.50;6.60;;;20.50;99.90;;;;;;4145814;28;20041;-80
2021/06/07 08:56:09;;;;;;;10.27;6.43;;;20.60;99.90;;;;;;4130655;28;20755;-80
2021/06/07 08:58:10;;;;;;;9.68;6.35;;;20.70;99.90;;;;;;4133120;28;20116;-80
2021/06/07 09:00:14;;;;;;;7.90;5.88;;;20.80;99.90;;;;;;4145169;28;20398;-80
2021/06/07 09:02:15;;;;;;;7.40;5.43;;;20.90;99.90;;;;;;4149301;28;20034;-81
2021/06/07 09:04:18;;;;;;;7.07;5.65;;;21.10;99.90;;;;;;4142115;28;20037;-80
2021/06/07 09:06:26;;;;;;;6.05;5.35;;;21.10;99.90;;;;;;4124514;28;20030;-80
2021/06/07 09:08:40;;;;;;;9.82;6.90;;;21.10;99.90;;;;;;4128290;28;20569;-80
2021/06/07 09:10:42;;;;;;;8.90;6.40;;;21.10;99.90;;;;;;4141654;28;20045;-80
2021/06/07 09:12:44;;;;;;;7.22;5.97;;;21.10;99.90;;;;;;4136763;28;20037;-80
2021/06/07 09:14:48;;;;;;;9.93;6.55;;;21.20;99.90;;;;;;4144065;28;20047;-80
2021/06/07 09:16:49;;;;;;;5.80;5.18;;;21.10;99.90;;;;;;4139667;28;20033;-80
2021/06/07 09:18:50;;;;;;;7.57;5.68;;;21.10;99.90;;;;;;4141775;28;20042;-80
2021/06/07 09:20:57;;;;;;;9.40;6.78;;;21.20;99.90;;;;;;4142737;28;20022;-80
2021/06/07 09:23:06;;;;;;;10.35;5.97;;;21.20;99.90;;;;;;4139846;28;20061;-80
2021/06/07 09:25:08;;;;;;;7.35;6.30;;;21.30;99.90;;;;;;4138426;28;20371;-79
2021/06/07 09:27:09;;;;;;;;;;;21.30;99.90;;;;;;4121866;28;20022;-80
2021/06/07 09:29:32;;;;;;;7.78;5.93;;;21.30;99.90;;;;;;4141651;28;20331;-80
2021/06/07 09:31:40;;;;;;;7.15;5.70;;;21.30;99.90;;;;;;4142971;28;20076;-80
2021/06/07 09:33:44;;;;;;;10.20;6.50;;;21.30;99.90;;;;;;4140406;28;20199;-80
2021/06/07 09:35:46;;;;;;;7.32;6.53;;;21.30;99.90;;;;;;4140430;28;20034;-80
2021/06/07 09:38:06;;;;;;;6.32;5.10;;;21.40;99.90;;;;;;4127057;28;20045;-80
2021/06/07 09:40:21;;;;;;;9.02;5.18;;;21.40;99.90;;;;;;4145499;28;20587;-80
2021/06/07 09:42:23;;;;;;;6.00;4.88;;;21.40;99.90;;;;;;4144567;28;20543;-80
2021/06/07 09:44:35;;;;;;;6.13;5.40;;;21.50;99.90;;;;;;4146780;28;20026;-81
2021/06/07 09:46:35;;;;;;;6.57;5.28;;;21.50;99.90;;;;;;4137570;28;20022;-79
2021/06/07 09:48:36;;;;;;;6.85;5.28;;;21.60;99.90;;;;;;4135633;28;20045;-79
2021/06/07 09:50:37;;;;;;;5.30;4.47;;;21.60;99.90;;;;;;4123495;28;20062;-80
2021/06/07 09:52:55;;;;;;;5.78;4.85;;;21.70;99.90;;;;;;4143843;28;20037;-80
2021/06/07 09:55:08;;;;;;;11.07;5.70;;;21.70;99.90;;;;;;4141140;28;20050;-80
2021/06/07 09:57:08;;;;;;;;;;;21.70;99.90;;;;;;4142791;28;20061;-80
2021/06/07 09:59:27;;;;;;;6.05;4.70;;;21.70;99.90;;;;;;4122503;28;19910;-80
2021/06/07 10:01:31;;;;;;;5.45;4.65;;;21.50;99.90;;;;;;4140180;28;20053;-80
2021/06/07 10:03:32;;;;;;;6.55;4.70;;;21.40;99.90;;;;;;4140145;28;20026;-80
2021/06/07 10:05:35;;;;;;;7.82;5.07;;;21.30;99.90;;;;;;4125029;28;20101;-80
2021/06/07 10:07:51;;;;;;;5.25;4.45;;;21.40;99.90;;;;;;4139984;28;20029;-80
2021/06/07 10:10:13;;;;;;;6.78;4.72;;;21.40;99.90;;;;;;4139456;28;20149;-80
2021/06/07 10:12:26;;;;;;;6.40;4.95;;;21.40;99.90;;;;;;4137266;28;20394;-80
2021/06/07 10:14:27;;;;;;;7.20;5.50;;;21.40;99.90;;;;;;4140034;28;20153;-80
2021/06/07 10:16:28;;;;;;;7.72;5.30;;;21.40;99.90;;;;;;4141475;28;20022;-80
2021/06/07 10:18:28;;;;;;;7.55;5.28;;;21.40;99.90;;;;;;4141744;28;20363;-80
2021/06/07 10:22:34;;;;;;;6.68;4.55;;;21.50;99.90;;;;;;4135943;28;20044;-80
2021/06/07 10:24:34;;;;;;;8.57;5.65;;;21.50;99.90;;;;;;4127189;28;20034;-80
2021/06/07 10:26:35;;;;;;;6.93;5.40;;;21.60;99.90;;;;;;4142469;28;20053;-80
2021/06/07 10:28:39;;;;;;;7.50;5.80;;;21.70;99.90;;;;;;4138477;28;20046;-80
2021/06/07 10:30:44;;;;;;;9.00;5.32;;;21.70;99.90;;;;;;4140854;28;20034;-80
2021/06/07 10:32:45;;;;;;;6.20;4.88;;;21.70;99.90;;;;;;4140104;28;20041;-80
2021/06/07 10:35:05;;;;;;;7.10;5.47;;;21.70;99.90;;;;;;4142314;28;20038;-80
2021/06/07 10:37:06;;;;;;;8.57;6.03;;;21.70;99.90;;;;;;4141068;28;20128;-80
2021/06/07 10:39:13;;;;;;;9.80;5.05;;;21.70;99.90;;;;;;4142832;28;20192;-80
2021/06/07 10:41:21;;;;;;;7.07;4.90;;;21.70;99.90;;;;;;4140037;28;20038;-80